Flight Track Log - Related Links

Times and Time Zones

All times are in EST time to prevent confusion due to time zone crossing. See the N53NW flight status page for this flight to view local times or setup timezone preferences in your user account.

Time Position Orientation Groundspeed Altitude Reporting Facility
EST Latitude Longitude Course Direction KTS MPH feet Rate Location/Type
Fri 03:00:30 PM 29.6331 -95.2631 53° Northeast 182 209 800  Level Houston Center
Fri 03:01:27 PM 29.6569 -95.2264 53° Northeast 217 250 3,200 2,523 Climbing Houston Center
Fri 03:02:17 PM 29.7050 -95.2317 355° North 245 282 5,300 3,344 Climbing Houston Center
Fri 03:02:28 PM 29.7292 -95.2344 354° North 272 313 6,600 3,718 Climbing Houston Center
Fri 03:03:28 PM 29.7989 -95.2619 341° North 270 311 9,700 2,814 Climbing Houston Center
Fri 03:04:21 PM 29.8472 -95.2881 335° Northwest 274 315 11,900 2,793 Climbing Houston Center
Fri 03:05:24 PM 29.9292 -95.3308 336° Northwest 270 311 15,100 2,496 Climbing Houston Center
Fri 03:06:26 PM 30.0036 -95.3703 335° Northwest 289 333 17,100 1,967 Climbing Houston Center
Fri 03:07:26 PM 30.0822 -95.4111 336° Northwest 306 352 19,100 2,293 Climbing Houston Center
Fri 03:08:29 PM 30.1597 -95.4522 335° Northwest 307 353 21,800 2,274 Climbing Houston Center
Fri 03:09:30 PM 30.2364 -95.4928 335° Northwest 304 350 23,800 2,146 Climbing Houston Center
Fri 03:10:32 PM 30.3356 -95.5456 335° Northwest 321 369 26,200 1,984 Climbing Houston Center
Fri 03:11:37 PM 30.4189 -95.5883 336° Northwest 326 375 28,000 1,584 Climbing Houston Center
Fri 03:12:37 PM 30.5053 -95.6358 335° Northwest 339 390 29,500 1,452 Climbing Houston Center
Fri 03:13:41 PM 30.5953 -95.6825 336° Northwest 352 405 31,000 1,500 Climbing Houston Center
Fri 03:14:41 PM 30.6906 -95.7339 335° Northwest 358 412 32,600 1,403 Climbing Houston Center
Fri 03:15:45 PM 30.7808 -95.7833 335° Northwest 357 411 33,900 1,104 Climbing Houston Center
Fri 03:16:46 PM 30.8736 -95.8342 335° Northwest 365 420 34,900 1,065 Climbing Houston Center
Fri 03:17:49 PM 30.9883 -95.8958 335° Northwest 375 432 36,100 1,065 Climbing Houston Center
Fri 03:18:50 PM 31.0836 -95.9467 335° Northwest 375 432 37,100 960 Climbing Houston Center
Fri 03:19:54 PM 31.1817 -95.9897 339° North 374 430 38,100 864 Climbing Houston Center
Fri 03:20:55 PM 31.2817 -96.0294 341° North 377 434 38,900 435 Climbing Houston Center
Fri 03:21:58 PM 31.3839 -96.0692 342° North 383 441 39,000 48 Climbing Houston Center
Fri 03:23:01 PM 31.4922 -96.1108 342° North 394 453 39,000  Level Houston Center
Fri 03:24:01 PM 31.6172 -96.1597 342° North 401 461 39,000  Level Houston Center
Fri 03:24:43 PM 31.6872 -96.1861 342° North 401 461 39,000  Level Fort Worth Center
Fri 03:25:45 PM 31.7950 -96.2283 342° North 403 464 39,000  Level Fort Worth Center
Fri 03:26:47 PM 31.8931 -96.2664 342° North 398 458 39,000  Level Fort Worth Center
Fri 03:27:49 PM 32.0136 -96.3264 337° Northwest 389 448 39,000  Level Fort Worth Center
Fri 03:28:52 PM 32.0847 -96.4061 316° Northwest 351 404 39,000  Level Fort Worth Center
Fri 03:29:54 PM 32.1508 -96.4881 314° West 345 397 39,000  Level Fort Worth Center
Fri 03:30:56 PM 32.2186 -96.5706 314° West 347 399 39,000  Level Fort Worth Center
Fri 03:31:58 PM 32.2850 -96.6525 314° West 347 399 39,000  Level Fort Worth Center
Fri 03:33:00 PM 32.3508 -96.7353 313° West 345 397 39,000  Level Fort Worth Center
Fri 03:34:02 PM 32.4322 -96.8350 314° West 349 402 39,000  Level Fort Worth Center
Fri 03:35:04 PM 32.4997 -96.9208 313° West 355 409 39,000 339 Level Fort Worth Center
Fri 03:36:06 PM 32.5661 -97.0039 313° West 348 400 39,700 480 Climbing Fort Worth Center
Fri 03:37:09 PM 32.6319 -97.0864 313° West 342 394 40,000 144 Climbing Fort Worth Center
Fri 03:38:11 PM 32.7003 -97.1725 313° West 356 410 40,000  Level Fort Worth Center
Fri 03:39:13 PM 32.7711 -97.2614 313° West 365 420 40,000  Level Fort Worth Center
Fri 03:40:15 PM 32.8419 -97.3511 313° West 368 423 40,000  Level Fort Worth Center
Fri 03:41:17 PM 32.9267 -97.4603 313° West 370 426 40,000  Level Fort Worth Center
Fri 03:42:19 PM 32.9978 -97.5472 314° West 365 420 40,000  Level Fort Worth Center
Fri 03:43:22 PM 33.0661 -97.6356 313° West 361 415 40,000  Level Fort Worth Center
Fri 03:44:24 PM 33.1356 -97.7256 313° West 365 420 40,000  Level Fort Worth Center
Fri 03:45:26 PM 33.2053 -97.8139 313° West 366 421 40,000  Level Fort Worth Center
Fri 03:46:28 PM 33.2747 -97.9031 313° West 366 421 40,000  Level Fort Worth Center
Fri 03:47:30 PM 33.3578 -98.0100 313° West 366 421 40,000  Level Fort Worth Center
Fri 03:48:32 PM 33.4258 -98.0983 313° West 363 418 40,000  Level Fort Worth Center
Fri 03:49:34 PM 33.4978 -98.1872 314° West 366 421 40,000  Level Fort Worth Center
Fri 03:50:37 PM 33.5647 -98.2742 313° West 361 415 40,000  Level Fort Worth Center
Fri 03:51:39 PM 33.6297 -98.3636 311° West 358 412 40,000  Level Fort Worth Center
Fri 03:52:41 PM 33.6986 -98.4514 313° West 359 413 40,000  Level Fort Worth Center
Fri 03:53:43 PM 33.7797 -98.5586 312° West 361 415 40,000  Level Fort Worth Center
Fri 03:54:45 PM 33.8483 -98.6467 313° West 361 415 40,000  Level Fort Worth Center
Fri 03:55:47 PM 33.9172 -98.7358 313° West 364 419 40,000  Level Fort Worth Center
Fri 03:56:49 PM 33.9850 -98.8244 313° West 361 415 40,000  Level Fort Worth Center
Fri 03:57:51 PM 34.0528 -98.9144 312° West 364 419 40,000  Level Fort Worth Center
Fri 03:58:53 PM 34.1289 -99.0147 313° West 362 417 40,000  Level Fort Worth Center
Fri 03:59:57 PM 34.1969 -99.1044 313° West 362 417 40,000  Level Fort Worth Center
Fri 04:00:59 PM 34.2658 -99.1956 312° West 361 415 40,000  Level Fort Worth Center
Fri 04:02:01 PM 34.3344 -99.2881 312° West 365 420 40,000  Level Fort Worth Center
Fri 04:03:03 PM 34.4153 -99.3969 312° West 364 419 40,000  Level Fort Worth Center
Fri 04:04:05 PM 34.4844 -99.4867 313° West 364 419 40,000  Level Fort Worth Center
Fri 04:05:07 PM 34.5522 -99.5783 312° West 365 420 40,000  Level Fort Worth Center
Fri 04:06:09 PM 34.6211 -99.6703 312° West 366 421 40,000  Level Fort Worth Center
Fri 04:07:11 PM 34.6889 -99.7619 312° West 364 419 40,000  Level Fort Worth Center
Fri 04:08:13 PM 34.7569 -99.8539 312° West 364 419 40,000  Level Fort Worth Center
Fri 04:08:44 PM 34.7975 -99.9100 311° West 365 420 40,000  Level Albuquerque Center
Fri 04:09:46 PM 34.8658 -100.0014 312° West 364 419 40,000  Level Albuquerque Center
Fri 04:10:49 PM 34.9319 -100.0914 312° West 360 414 40,000  Level Albuquerque Center
Fri 04:11:51 PM 34.9992 -100.1831 312° West 360 414 40,000  Level Albuquerque Center
Fri 04:12:53 PM 35.0650 -100.2753 311° West 359 413 40,000  Level Albuquerque Center
Fri 04:13:55 PM 35.1478 -100.3869 312° West 362 417 40,000  Level Albuquerque Center
Fri 04:14:57 PM 35.2144 -100.4792 312° West 365 420 40,000  Level Albuquerque Center
Fri 04:15:59 PM 35.2803 -100.5708 311° West 362 417 40,000  Level Albuquerque Center
Fri 04:17:01 PM 35.3478 -100.6656 311° West 362 417 40,000  Level Albuquerque Center
Fri 04:18:03 PM 35.4158 -100.7578 312° West 366 421 40,000  Level Albuquerque Center
Fri 04:19:05 PM 35.4822 -100.8508 311° West 366 421 40,000  Level Albuquerque Center
Fri 04:20:07 PM 35.5611 -100.9617 311° West 363 418 40,000  Level Albuquerque Center
Fri 04:21:09 PM 35.6269 -101.0544 311° West 362 417 40,000  Level Albuquerque Center
Fri 04:22:11 PM 35.6925 -101.1478 311° West 363 418 40,000  Level Albuquerque Center
Fri 04:23:13 PM 35.7583 -101.2408 311° West 364 419 40,000  Level Albuquerque Center
Fri 04:24:15 PM 35.8247 -101.3347 311° West 365 420 40,000  Level Albuquerque Center
Fri 04:25:18 PM 35.9036 -101.4464 311° West 363 418 40,000  Level Albuquerque Center
Fri 04:26:20 PM 35.9697 -101.5397 311° West 363 418 40,000  Level Albuquerque Center
Fri 04:27:22 PM 36.0339 -101.6311 311° West 358 412 40,000  Level Albuquerque Center
Fri 04:28:24 PM 36.0983 -101.7269 310° West 362 417 40,000  Level Albuquerque Center
Fri 04:29:26 PM 36.1625 -101.8175 311° West 357 411 40,000  Level Albuquerque Center
Fri 04:30:28 PM 36.2392 -101.9281 311° West 354 407 40,000  Level Albuquerque Center
Fri 04:31:30 PM 36.3033 -102.0203 311° West 353 406 40,000  Level Albuquerque Center
Fri 04:32:32 PM 36.3681 -102.1136 311° West 357 411 40,000  Level Albuquerque Center
Fri 04:33:34 PM 36.4325 -102.2056 311° West 355 409 40,000  Level Albuquerque Center
Fri 04:34:36 PM 36.4964 -102.3006 310° West 358 412 40,000  Level Albuquerque Center
Fri 04:35:38 PM 36.5622 -102.3967 310° West 364 419 40,000  Level Albuquerque Center
Fri 04:36:40 PM 36.6406 -102.5103 311° West 362 417 40,000  Level Albuquerque Center
Fri 04:37:42 PM 36.7094 -102.6114 310° West 366 421 40,000  Level Albuquerque Center
Fri 04:38:44 PM 36.7703 -102.7033 310° West 362 417 40,000  Level Albuquerque Center
Fri 04:39:47 PM 36.8439 -102.8097 311° West 361 415 40,000  Level Albuquerque Center
Fri 04:40:49 PM 36.9039 -102.9017 309° West 359 413 40,000  Level Albuquerque Center
Fri 04:41:51 PM 36.9756 -103.0075 310° West 358 412 40,000  Level Albuquerque Center
Fri 04:42:53 PM 37.0356 -103.0950 311° West 349 402 40,000  Level Albuquerque Center
Fri 04:43:55 PM 37.0939 -103.1817 310° West 343 395 40,000  Level Albuquerque Center
Fri 04:44:57 PM 37.1617 -103.2839 310° West 341 392 40,000  Level Albuquerque Center
Fri 04:45:59 PM 37.2214 -103.3700 311° West 341 392 40,000  Level Albuquerque Center
Fri 04:47:01 PM 37.2767 -103.4814 302° West 337 388 40,000 -387 Level Albuquerque Center
Fri 04:48:03 PM 37.3186 -103.5844 297° West 342 394 39,200 -919 Descending Albuquerque Center
Fri 04:49:05 PM 37.3678 -103.7008 298° West 340 391 38,100 -1,016 Descending Albuquerque Center
Fri 04:50:07 PM 37.4072 -103.7972 297° West 327 376 37,100 -1,016 Descending Albuquerque Center
Fri 04:51:09 PM 37.4517 -103.9128 296° West 328 377 36,000 -1,016 Descending Albuquerque Center
Fri 04:52:11 PM 37.4942 -104.0150 298° West 330 380 35,000 -968 Descending Albuquerque Center
Fri 04:53:13 PM 37.5339 -104.1111 298° West 312 359 34,000 -993 Descending Albuquerque Center
Fri 04:54:36 PM 37.5872 -104.2386 298° West 293 337 32,600 -993 Descending Denver Center
Fri 04:55:38 PM 37.6225 -104.3256 297° West 292 336 31,600 -1,016 Descending Denver Center
Fri 04:56:40 PM 37.6628 -104.4247 297° West 286 329 30,500 -926 Descending Denver Center
Fri 04:57:54 PM 37.6958 -104.5061 297° West 275 316 29,500 -1,007 Descending Denver Center
Fri 04:58:57 PM 37.7389 -104.6142 297° West 271 312 28,200 -720 Descending Denver Center
Fri 04:59:59 PM 37.7725 -104.6933 298° West 268 308 28,000 -97 Descending Denver Center
Fri 05:01:01 PM 37.8103 -104.7881 297° West 270 311 28,000  Level Denver Center
Fri 05:02:03 PM 37.8425 -104.8706 296° West 271 312 28,000  Level Denver Center
Fri 05:03:05 PM 37.8800 -104.9658 297° West 271 312 28,000  Level Denver Center
Fri 05:04:07 PM 37.9069 -105.0322 297° West 268 308 28,000  Level Denver Center
Fri 05:05:09 PM 37.9492 -105.1383 297° West 264 304 28,000 -387 Level Denver Center
Fri 05:06:11 PM 37.9794 -105.2169 296° West 261 300 27,200 -484 Descending Denver Center
Fri 05:07:13 PM 38.0144 -105.3031 297° West 247 284 27,000 -97 Descending Denver Center
Fri 05:08:15 PM 38.0442 -105.3783 297° West 249 287 27,000  Level Denver Center
Fri 05:09:29 PM 38.0797 -105.4719 296° West 263 303 27,000  Level Denver Center
Fri 05:10:32 PM 38.1158 -105.5636 297° West 259 298 27,000  Level Denver Center
Fri 05:11:34 PM 38.1531 -105.6581 297° West 266 306 27,000  Level Denver Center
Fri 05:12:36 PM 38.1828 -105.7344 296° West 256 295 27,000 -435 Level Denver Center
Fri 05:13:38 PM 38.2328 -105.8089 311° West 248 285 26,100 -484 Descending Denver Center
Fri 05:14:40 PM 38.2775 -105.8717 312° West 250 288 26,000 -48 Descending Denver Center
Fri 05:15:42 PM 38.3286 -105.9422 313° West 243 280 26,000 -48 Level Denver Center
Fri 05:16:44 PM 38.3703 -106.0047 310° West 243 280 25,900 -726 Descending Denver Center
Fri 05:17:46 PM 38.4197 -106.0781 311° West 242 278 24,500 -1,147 Descending Denver Center
Fri 05:19:00 PM 38.4886 -106.1136 338° Northwest 275 316 23,300 -657 Descending Denver Center
Fri 05:20:03 PM 38.5781 -106.1325 351° North 272 313 23,000 -144 Descending Denver Center
Fri 05:21:05 PM 38.6483 -106.1475 351° North 266 306 23,000  Level Denver Center
Fri 05:22:06 PM 38.7189 -106.1622 351° North 266 306 23,000  Level Denver Center
Fri 05:23:09 PM 38.7978 -106.1794 350° North 268 308 23,000  Level Denver Center
Fri 05:24:11 PM 38.8725 -106.1964 350° North 272 313 23,000  Level Denver Center
Fri 05:25:13 PM 38.9533 -106.2119 351° North 257 296 23,000  Level Denver Center
Fri 05:26:15 PM 39.0183 -106.2267 350° North 250 288 23,000  Level Denver Center
Fri 05:27:17 PM 39.0961 -106.2431 351° North 253 291 23,000  Level Denver Center
Fri 05:28:19 PM 39.1636 -106.2578 350° North 256 295 23,000 -629 Level Denver Center
Fri 05:29:21 PM 39.2442 -106.2756 350° North 262 302 21,700 -1,161 Descending Denver Center
Fri 05:30:23 PM 39.3114 -106.2894 351° North 258 297 20,600 -823 Descending Denver Center
Fri 05:31:25 PM 39.3911 -106.3064 351° North 256 295 20,000 -677 Descending Denver Center
Fri 05:32:27 PM 39.4636 -106.3228 350° North 263 303 19,200 -1,065 Descending Denver Center
Fri 05:33:29 PM 39.5372 -106.3392 350° North 268 308 17,800 -1,065 Descending Denver Center
Fri 05:34:31 PM 39.6072 -106.3544 350° North 260 299 17,000 -629 Descending Denver Center
Fri 05:35:33 PM 39.6753 -106.3697 350° North 251 289 16,500 -484 Descending Denver Center
Fri 05:36:35 PM 39.7469 -106.3853 351° North 256 295 16,000 -221 Descending Denver Center
Fri 05:37:49 PM 39.8317 -106.4039 350° North 258 297 16,000  Level Denver Center
Fri 05:38:52 PM 39.8994 -106.4478 334° Northwest 239 275 16,000 -240 Level Denver Center
Fri 05:39:54 PM 39.9281 -106.5111 301° West 244 281 15,500 -919 Descending Denver Center
Fri 05:40:56 PM 39.8642 -106.5231 188° South 248 285 14,100 -726 Descending Denver Center
Fri 05:41:58 PM 39.8039 -106.5308 186° South 227 261 14,000 -581 Descending Denver Center
Fri 05:43:00 PM 39.7406 -106.5531 195° South 212 244 12,900 -677 Descending Denver Center
Fri 05:44:02 PM 39.6953 -106.5819 206° Southwest 197 227 12,600 -484 Descending Denver Center
Fri 05:45:04 PM 39.6828 -106.6394 254° West 172 198 11,900 -919 Descending Denver Center
Fri 05:46:06 PM 39.6775 -106.6911 262° West 153 176 10,700 -968 Descending Denver Center
Fri 05:47:08 PM 39.6692 -106.7350 256° West 134 154 9,900 -919 Descending Denver Center
Fri 05:48:10 PM 39.6586 -106.7894 256° West 129 148 8,800 -1,016 Descending Denver Center
Fri 05:49:12 PM 39.6517 -106.8308 258° West 123 142 7,800 -823 Descending Denver Center
Fri 05:50:14 PM 39.6469 -106.8719 262° West 118 136 7,100 -532 Descending Denver Center
Fri 05:51:16 PM 39.6397 -106.9158 258° West 115 132 6,700 -387 Descending Denver Center

Login

Don't have an account? Register now (free) for customized features, flight alerts, and more!